createdAt,value
2018-01-04T00:00:23.731Z,31.62
2018-01-04T00:01:23.721Z,33.32
2018-01-04T00:02:23.712Z,35.71
2018-01-04T00:03:23.702Z,29.07
2018-01-04T00:04:23.716Z,32.73
2018-01-04T00:05:23.689Z,34.56
2018-01-04T00:06:23.683Z,34.58
2018-01-04T00:07:23.677Z,39.14
2018-01-04T00:08:23.669Z,32.92
2018-01-04T00:09:23.663Z,32.00
2018-01-04T00:10:23.659Z,31.46
2018-01-04T00:11:23.652Z,32.62
2018-01-04T00:12:23.645Z,34.44
2018-01-04T00:13:23.641Z,31.96
2018-01-04T00:14:23.627Z,33.52
2018-01-04T00:15:23.626Z,31.45
2018-01-04T00:16:23.618Z,33.26
2018-01-04T00:17:23.616Z,31.74
2018-01-04T00:18:23.610Z,28.97
2018-01-04T00:19:23.606Z,29.18
2018-01-04T00:20:23.599Z,31.61
2018-01-04T00:21:23.589Z,34.10
2018-01-04T00:22:23.577Z,37.32
2018-01-04T00:23:23.580Z,31.35
2018-01-04T00:24:23.566Z,33.57
2018-01-04T00:25:23.563Z,29.86
2018-01-04T00:26:23.558Z,37.18
2018-01-04T00:27:23.549Z,32.15
2018-01-04T00:28:23.542Z,37.07
2018-01-04T00:29:23.537Z,35.70
2018-01-04T00:30:23.526Z,41.65
2018-01-04T00:31:23.519Z,37.52
2018-01-04T00:32:23.512Z,32.06
2018-01-04T00:33:23.508Z,33.61
2018-01-04T00:34:23.504Z,33.63
2018-01-04T00:35:23.497Z,30.04
2018-01-04T00:36:23.488Z,30.97
2018-01-04T00:37:23.486Z,35.26
2018-01-04T00:38:23.477Z,38.00
2018-01-04T00:39:23.465Z,33.54
2018-01-04T00:40:23.467Z,38.38
2018-01-04T00:41:23.460Z,33.00
2018-01-04T00:42:23.448Z,31.01
2018-01-04T00:43:23.451Z,33.65
2018-01-04T00:44:23.443Z,36.30
2018-01-04T00:45:23.433Z,36.76
2018-01-04T00:46:23.417Z,39.47
2018-01-04T00:47:23.418Z,34.38
2018-01-04T00:48:23.412Z,38.44
2018-01-04T00:49:23.408Z,31.28
2018-01-04T00:50:23.398Z,32.20
2018-01-04T00:51:23.386Z,31.74
2018-01-04T00:52:23.387Z,35.24
2018-01-04T00:53:23.386Z,37.18
2018-01-04T00:54:23.379Z,33.58
2018-01-04T00:55:23.369Z,38.90
2018-01-04T00:56:23.373Z,30.18
2018-01-04T00:57:23.359Z,30.15
2018-01-04T00:58:23.348Z,40.17
2018-01-04T00:59:23.388Z,32.51
2018-01-04T01:00:23.349Z,34.76
2018-01-04T01:01:23.328Z,39.06
2018-01-04T01:02:23.324Z,34.54
2018-01-04T01:03:23.308Z,31.54
2018-01-04T01:04:23.308Z,32.37
2018-01-04T01:05:23.304Z,39.41
2018-01-04T01:06:23.299Z,40.82
2018-01-04T01:07:23.308Z,41.98
2018-01-04T01:08:23.290Z,39.65
2018-01-04T01:09:23.282Z,34.26
2018-01-04T01:10:23.268Z,32.29
2018-01-04T01:11:23.274Z,34.25
2018-01-04T01:12:23.261Z,37.58
2018-01-04T01:13:23.249Z,34.56
2018-01-04T01:14:23.251Z,33.20
2018-01-04T01:15:23.787Z,36.18
2018-01-04T01:16:23.239Z,33.67
2018-01-04T01:17:23.219Z,31.09
2018-01-04T01:18:23.209Z,36.88
2018-01-04T01:19:23.220Z,34.52
2018-01-04T01:20:23.206Z,41.75
2018-01-04T01:21:23.201Z,34.50
2018-01-04T01:22:23.193Z,36.08
2018-01-04T01:23:23.204Z,38.55
2018-01-04T01:24:23.178Z,34.44
2018-01-04T01:25:23.173Z,34.74
2018-01-04T01:26:23.165Z,39.20
2018-01-04T01:27:23.157Z,35.81
2018-01-04T01:28:23.159Z,39.73
2018-01-04T01:29:23.155Z,38.84
2018-01-04T01:30:23.787Z,40.42
2018-01-04T01:31:23.137Z,34.92
2018-01-04T01:32:23.131Z,35.38
2018-01-04T01:33:23.122Z,39.01
2018-01-04T01:34:23.130Z,35.80
2018-01-04T01:35:23.126Z,30.88
2018-01-04T01:36:23.104Z,36.78
2018-01-04T01:37:23.102Z,34.24
2018-01-04T01:38:23.094Z,35.96
2018-01-04T01:39:23.795Z,39.27
2018-01-04T01:40:23.083Z,42.88
2018-01-04T01:41:23.070Z,42.06
2018-01-04T01:42:23.064Z,35.43
2018-01-04T01:43:23.057Z,38.60
2018-01-04T01:44:23.051Z,35.30
2018-01-04T01:45:23.056Z,34.65
2018-01-04T01:46:23.038Z,33.50
2018-01-04T01:47:23.032Z,33.10
2018-01-04T01:48:23.027Z,36.74
2018-01-04T01:49:23.022Z,32.78
2018-01-04T01:50:23.020Z,39.98
2018-01-04T01:51:23.008Z,30.76
2018-01-04T01:52:23.000Z,31.08
2018-01-04T01:53:23.001Z,34.88
2018-01-04T01:54:22.988Z,33.50
2018-01-04T01:55:23.000Z,33.82
2018-01-04T01:56:22.977Z,34.10
2018-01-04T01:57:22.968Z,31.01
2018-01-04T01:58:22.958Z,35.96
2018-01-04T01:59:22.953Z,37.88
2018-01-04T02:00:22.958Z,39.12
2018-01-04T02:01:22.945Z,33.19
2018-01-04T02:02:22.935Z,30.58
2018-01-04T02:03:22.927Z,39.36
2018-01-04T02:04:22.923Z,39.08
2018-01-04T02:05:22.921Z,35.75
2018-01-04T02:06:22.916Z,38.15
2018-01-04T02:07:22.908Z,34.04
2018-01-04T02:08:22.902Z,29.53
2018-01-04T02:09:22.894Z,36.32
2018-01-04T02:10:22.890Z,33.64
2018-01-04T02:11:22.875Z,36.37
2018-01-04T02:12:22.876Z,37.38
2018-01-04T02:13:22.874Z,38.40
2018-01-04T02:14:22.861Z,37.07
2018-01-04T02:15:23.809Z,37.64
2018-01-04T02:16:22.845Z,30.66
2018-01-04T02:17:22.839Z,29.80
2018-01-04T02:18:22.836Z,34.30
2018-01-04T02:19:22.824Z,33.16
2018-01-04T02:20:22.811Z,34.69
2018-01-04T02:21:22.814Z,35.04
2018-01-04T02:22:22.810Z,32.33
2018-01-04T02:23:22.804Z,33.14
2018-01-04T02:24:22.791Z,33.96
2018-01-04T02:25:22.789Z,27.84
2018-01-04T02:26:22.791Z,32.80
2018-01-04T02:27:22.776Z,31.10
2018-01-04T02:28:22.765Z,37.89
2018-01-04T02:29:22.766Z,27.46
2018-01-04T02:30:22.753Z,32.11
2018-01-04T02:31:22.748Z,34.86
2018-01-04T02:32:22.738Z,30.48
2018-01-04T02:33:22.740Z,32.42
2018-01-04T02:34:22.730Z,32.58
2018-01-04T02:35:22.723Z,33.40
2018-01-04T02:36:22.714Z,34.77
2018-01-04T02:37:22.712Z,32.71
2018-01-04T02:37:34.709Z,1.23
2018-01-04T02:39:22.699Z,27.62
2018-01-04T02:40:22.688Z,30.71
2018-01-04T02:41:22.688Z,31.78
2018-01-04T02:42:22.676Z,37.44
2018-01-04T02:43:22.671Z,30.63
2018-01-04T02:44:22.663Z,34.06
2018-01-04T02:45:22.686Z,29.91
2018-01-04T02:46:22.652Z,36.39
2018-01-04T02:47:22.658Z,32.82
2018-01-04T02:48:22.639Z,31.36
2018-01-04T02:49:22.645Z,34.72
2018-01-04T02:50:22.629Z,34.85
2018-01-04T02:51:22.620Z,34.17
2018-01-04T02:52:22.614Z,35.00
2018-01-04T02:53:22.612Z,36.43
2018-01-04T02:54:22.597Z,36.04
2018-01-04T02:55:22.589Z,32.46
2018-01-04T02:56:22.594Z,31.29
2018-01-04T02:57:22.589Z,37.80
2018-01-04T02:58:22.587Z,33.23
2018-01-04T02:59:22.564Z,32.89
2018-01-04T03:00:22.574Z,34.16
2018-01-04T03:01:22.557Z,27.37
2018-01-04T03:02:22.549Z,30.39
2018-01-04T03:03:22.544Z,32.98
2018-01-04T03:04:22.534Z,37.59
2018-01-04T03:05:22.529Z,39.14
2018-01-04T03:06:22.512Z,34.43
2018-01-04T03:07:22.516Z,30.60
2018-01-04T03:08:22.502Z,31.54
2018-01-04T03:09:22.499Z,33.74
2018-01-04T03:10:22.490Z,31.04
2018-01-04T03:11:22.485Z,32.58
2018-01-04T03:12:22.478Z,38.07
2018-01-04T03:13:22.473Z,42.18
2018-01-04T03:14:22.467Z,35.68
2018-01-04T03:15:22.458Z,38.10
2018-01-04T03:16:22.448Z,43.09
2018-01-04T03:17:22.447Z,34.95
2018-01-04T03:18:22.439Z,36.65
2018-01-04T03:19:22.432Z,34.30
2018-01-04T03:20:22.424Z,40.58
2018-01-04T03:21:22.429Z,33.41
2018-01-04T03:22:22.410Z,31.00
2018-01-04T03:23:22.408Z,34.25
2018-01-04T03:24:22.400Z,40.00
2018-01-04T03:25:22.391Z,37.21
2018-01-04T03:26:22.372Z,37.06
2018-01-04T03:27:22.374Z,31.46
2018-01-04T03:28:22.370Z,32.34
2018-01-04T03:29:23.332Z,38.52
2018-01-04T03:30:22.355Z,35.27
2018-01-04T03:31:22.348Z,33.20
2018-01-04T03:32:22.342Z,44.53
2018-01-04T03:33:22.339Z,42.06
2018-01-04T03:34:22.333Z,34.66
2018-01-04T03:35:22.316Z,40.56
2018-01-04T03:36:22.314Z,38.62
2018-01-04T03:37:22.319Z,37.37
2018-01-04T03:38:22.306Z,37.32
2018-01-04T03:39:22.295Z,38.98
2018-01-04T03:40:22.292Z,40.08
2018-01-04T03:41:22.281Z,35.98
2018-01-04T03:42:22.272Z,37.14
2018-01-04T03:43:22.267Z,37.57
2018-01-04T03:44:22.265Z,38.20
2018-01-04T03:45:22.255Z,40.15
2018-01-04T03:46:22.250Z,39.54
2018-01-04T03:47:22.238Z,35.40
2018-01-04T03:48:22.235Z,35.80
2018-01-04T03:49:22.233Z,36.24
2018-01-04T03:50:22.223Z,40.57
2018-01-04T03:51:22.846Z,36.08
2018-01-04T03:52:22.209Z,38.32
2018-01-04T03:53:22.204Z,42.74
2018-01-04T03:54:22.191Z,43.64
2018-01-04T03:55:22.186Z,39.98
2018-01-04T03:56:22.185Z,44.61
2018-01-04T03:57:22.177Z,41.50
2018-01-04T03:58:22.173Z,42.57
2018-01-04T03:59:22.847Z,37.36
2018-01-04T04:00:22.153Z,33.91
2018-01-04T04:01:22.152Z,36.36
2018-01-04T04:02:22.132Z,39.47
2018-01-04T04:03:22.137Z,31.24
2018-01-04T04:04:22.128Z,39.53
2018-01-04T04:05:22.121Z,36.81
2018-01-04T04:06:22.117Z,34.58
2018-01-04T04:07:22.113Z,42.00
2018-01-04T04:08:22.103Z,30.06
2018-01-04T04:09:22.098Z,37.30
2018-01-04T04:10:22.091Z,37.01
2018-01-04T04:11:22.081Z,38.59
2018-01-04T04:12:22.081Z,42.51
2018-01-04T04:13:22.060Z,35.12
2018-01-04T04:14:22.060Z,41.39
2018-01-04T04:15:22.063Z,39.91
2018-01-04T04:16:22.046Z,40.91
2018-01-04T04:17:22.044Z,37.77
2018-01-04T04:18:22.029Z,34.26
2018-01-04T04:19:22.026Z,39.24
2018-01-04T04:20:22.024Z,41.95
2018-01-04T04:21:22.019Z,36.74
2018-01-04T04:22:22.010Z,39.67
2018-01-04T04:23:21.996Z,40.26
2018-01-04T04:24:22.005Z,43.19
2018-01-04T04:25:21.992Z,40.10
2018-01-04T04:26:21.984Z,39.24
2018-01-04T04:27:21.978Z,37.19
2018-01-04T04:28:21.973Z,41.49
2018-01-04T04:29:21.962Z,34.37
2018-01-04T04:30:21.954Z,39.08
2018-01-04T04:31:21.946Z,35.55
2018-01-04T04:32:21.931Z,34.56
2018-01-04T04:33:21.936Z,44.60
2018-01-04T04:34:21.926Z,40.56
2018-01-04T04:35:21.921Z,38.88
2018-01-04T04:36:21.914Z,47.29
2018-01-04T04:37:21.910Z,44.93
2018-01-04T04:38:21.911Z,35.48
2018-01-04T04:39:21.898Z,38.36
2018-01-04T04:40:21.896Z,38.01
2018-01-04T04:41:21.880Z,38.07
2018-01-04T04:42:21.873Z,40.67
2018-01-04T04:43:21.867Z,36.02
2018-01-04T04:44:21.859Z,37.48
2018-01-04T04:45:21.858Z,37.86
2018-01-04T04:46:21.850Z,38.40
2018-01-04T04:47:21.840Z,39.12
2018-01-04T04:47:33.844Z,1.45
2018-01-04T04:49:21.831Z,33.67
2018-01-04T04:50:21.825Z,40.66
2018-01-04T04:51:21.814Z,43.61
2018-01-04T04:52:21.812Z,37.86
2018-01-04T04:53:21.798Z,41.10
2018-01-04T04:54:21.794Z,38.90
2018-01-04T04:55:21.783Z,35.52
2018-01-04T04:56:21.786Z,36.72
2018-01-04T04:57:21.775Z,42.16
2018-01-04T04:58:21.764Z,46.57
2018-01-04T04:59:21.767Z,42.05
2018-01-04T05:00:21.751Z,38.88
2018-01-04T05:01:21.751Z,38.66
2018-01-04T05:02:21.738Z,39.27
2018-01-04T05:03:21.734Z,36.50
2018-01-04T05:04:21.735Z,42.83
2018-01-04T05:05:21.726Z,38.05
2018-01-04T05:06:21.713Z,42.36
2018-01-04T05:07:21.710Z,41.62
2018-01-04T05:08:21.723Z,44.08
2018-01-04T05:09:21.702Z,36.57
2018-01-04T05:10:21.691Z,41.96
2018-01-04T05:11:21.677Z,42.72
2018-01-04T05:12:21.673Z,39.83
2018-01-04T05:13:21.669Z,46.68
2018-01-04T05:14:21.659Z,40.63
2018-01-04T05:15:21.651Z,40.22
2018-01-04T05:16:21.660Z,42.24
2018-01-04T05:17:21.642Z,37.27
2018-01-04T05:18:21.639Z,42.24
2018-01-04T05:19:21.633Z,46.17
2018-01-04T05:20:21.624Z,38.82
2018-01-04T05:21:21.619Z,45.39
2018-01-04T05:22:21.611Z,45.86
2018-01-04T05:23:21.603Z,38.88
2018-01-04T05:24:21.591Z,39.23
2018-01-04T05:25:21.594Z,40.89
2018-01-04T05:26:21.580Z,45.70
2018-01-04T05:27:21.574Z,43.22
2018-01-04T05:28:21.562Z,42.71
2018-01-04T05:29:21.562Z,45.12
2018-01-04T05:30:21.552Z,48.32
2018-01-04T05:31:21.549Z,41.99
2018-01-04T05:32:21.537Z,42.68
2018-01-04T05:33:21.540Z,36.78
2018-01-04T05:34:21.523Z,36.89
2018-01-04T05:35:21.511Z,44.16
2018-01-04T05:36:21.519Z,39.45
2018-01-04T05:37:21.512Z,40.59
2018-01-04T05:38:21.497Z,49.34
2018-01-04T05:39:21.493Z,39.94
2018-01-04T05:40:21.499Z,40.72
2018-01-04T05:41:21.480Z,45.33
2018-01-04T05:42:21.463Z,42.90
2018-01-04T05:43:21.466Z,45.68
2018-01-04T05:44:21.456Z,45.18
2018-01-04T05:45:21.452Z,40.26
2018-01-04T05:46:21.447Z,46.00
2018-01-04T05:47:21.444Z,47.54
2018-01-04T05:48:21.434Z,39.60
2018-01-04T05:49:21.424Z,38.96
2018-01-04T05:50:21.411Z,40.05
2018-01-04T05:51:21.409Z,39.74
2018-01-04T05:52:21.398Z,42.28
2018-01-04T05:53:21.393Z,39.04
2018-01-04T05:54:21.393Z,38.96
2018-01-04T05:55:21.386Z,47.87
2018-01-04T05:56:21.379Z,39.48
2018-01-04T05:56:33.378Z,1.65
2018-01-04T05:58:21.354Z,36.88
2018-01-04T05:59:21.356Z,37.79
2018-01-04T06:00:21.348Z,37.54
2018-01-04T06:01:21.338Z,37.87
2018-01-04T06:02:21.334Z,35.70
2018-01-04T06:03:21.327Z,41.11
2018-01-04T06:04:21.323Z,37.53
2018-01-04T06:05:21.305Z,40.86
2018-01-04T06:06:21.315Z,40.88
2018-01-04T06:07:21.297Z,38.11
2018-01-04T06:08:21.290Z,36.75
2018-01-04T06:09:21.285Z,35.94
2018-01-04T06:10:21.286Z,37.67
2018-01-04T06:11:21.272Z,42.10
2018-01-04T06:12:21.263Z,41.63
2018-01-04T06:13:21.272Z,41.12
2018-01-04T06:14:21.251Z,41.84
2018-01-04T06:15:21.244Z,38.72
2018-01-04T06:16:21.235Z,38.94
2018-01-04T06:17:21.237Z,39.41
2018-01-04T06:18:21.908Z,40.70
2018-01-04T06:19:21.217Z,32.75
2018-01-04T06:20:21.207Z,33.36
2018-01-04T06:21:21.196Z,34.96
2018-01-04T06:22:21.193Z,41.37
2018-01-04T06:23:21.184Z,38.12
2018-01-04T06:24:21.177Z,36.08
2018-01-04T06:25:21.170Z,36.54
2018-01-04T06:26:21.161Z,38.79
2018-01-04T06:27:21.151Z,35.57
2018-01-04T06:28:21.140Z,37.33
2018-01-04T06:29:21.143Z,39.79
2018-01-04T06:30:21.136Z,38.82
2018-01-04T06:31:21.130Z,40.51
2018-01-04T06:32:21.123Z,33.99
2018-01-04T06:33:21.123Z,36.02
2018-01-04T06:34:21.109Z,37.33
2018-01-04T06:35:21.099Z,38.67
2018-01-04T06:36:21.096Z,38.88
2018-01-04T06:37:21.087Z,34.20
2018-01-04T06:38:21.079Z,33.42
2018-01-04T06:39:21.070Z,38.27
2018-01-04T06:40:21.062Z,36.62
2018-01-04T06:41:21.056Z,40.30
2018-01-04T06:42:21.048Z,32.05
2018-01-04T06:43:21.044Z,33.22
2018-01-04T06:44:21.030Z,39.00
2018-01-04T06:45:21.046Z,38.66
2018-01-04T06:46:21.022Z,31.74
2018-01-04T06:47:21.926Z,29.31
2018-01-04T06:48:21.046Z,28.84
2018-01-04T06:49:21.001Z,39.60
2018-01-04T06:50:20.993Z,35.40
2018-01-04T06:51:20.985Z,33.10
2018-01-04T06:52:20.980Z,36.17
2018-01-04T06:53:20.975Z,32.16
2018-01-04T06:54:20.972Z,31.16
2018-01-04T06:55:20.961Z,36.07
2018-01-04T06:56:20.954Z,36.24
2018-01-04T06:57:20.943Z,29.55
2018-01-04T06:58:20.939Z,37.22
2018-01-04T06:59:20.934Z,29.99
2018-01-04T07:00:20.929Z,31.42
2018-01-04T07:01:20.913Z,40.49
2018-01-04T07:02:20.918Z,34.88
2018-01-04T07:03:20.900Z,34.80
2018-01-04T07:04:20.894Z,35.45
2018-01-04T07:05:20.883Z,32.83
2018-01-04T07:06:20.876Z,33.20
2018-01-04T07:07:20.873Z,28.19
2018-01-04T07:08:20.868Z,36.28
2018-01-04T07:09:20.859Z,32.92
2018-01-04T07:10:20.852Z,38.70
2018-01-04T07:10:32.845Z,1.67
2018-01-04T07:12:20.851Z,29.64
2018-01-04T07:13:20.842Z,37.20
2018-01-04T07:14:20.829Z,36.23
2018-01-04T07:15:20.816Z,30.35
2018-01-04T07:16:20.820Z,29.04
2018-01-04T07:17:20.803Z,32.92
2018-01-04T07:18:20.796Z,33.38
2018-01-04T07:19:20.786Z,36.19
2018-01-04T07:20:20.782Z,33.29
2018-01-04T07:21:20.777Z,31.78
2018-01-04T07:22:20.769Z,33.10
2018-01-04T07:23:20.759Z,32.97
2018-01-04T07:24:20.756Z,39.52
2018-01-04T07:25:20.752Z,32.43
2018-01-04T07:26:20.742Z,28.22
2018-01-04T07:27:20.737Z,34.56
2018-01-04T07:28:20.731Z,38.16
2018-01-04T07:29:20.723Z,38.71
2018-01-04T07:30:20.719Z,37.42
2018-01-04T07:31:20.707Z,38.66
2018-01-04T07:32:20.706Z,36.65
2018-01-04T07:33:20.692Z,32.45
2018-01-04T07:34:20.689Z,36.27
2018-01-04T07:35:20.676Z,34.85
2018-01-04T07:36:20.672Z,32.78
2018-01-04T07:37:20.669Z,29.87
2018-01-04T07:38:20.652Z,29.20
2018-01-04T07:39:20.649Z,31.43
2018-01-04T07:40:20.643Z,36.27
2018-01-04T07:41:20.642Z,37.49
2018-01-04T07:42:20.638Z,36.61
2018-01-04T07:43:20.631Z,30.45
2018-01-04T07:44:20.621Z,31.74
2018-01-04T07:45:20.615Z,31.78
2018-01-04T07:46:20.604Z,29.91
2018-01-04T07:47:20.603Z,30.17
2018-01-04T07:48:20.603Z,35.60
2018-01-04T07:49:20.584Z,30.76
2018-01-04T07:50:20.576Z,24.71
2018-01-04T07:51:20.568Z,33.21
2018-01-04T07:52:20.566Z,31.86
2018-01-04T07:53:20.555Z,33.66
2018-01-04T07:54:20.546Z,32.44
2018-01-04T07:55:20.542Z,30.28
2018-01-04T07:56:20.537Z,34.86
2018-01-04T07:57:20.534Z,28.55
2018-01-04T07:58:20.521Z,29.46
2018-01-04T07:59:21.446Z,30.08
2018-01-04T08:00:20.517Z,30.26
2018-01-04T08:01:20.507Z,30.41
2018-01-04T08:02:20.492Z,31.28
2018-01-04T08:03:20.490Z,33.12
2018-01-04T08:04:20.484Z,31.64
2018-01-04T08:05:20.476Z,32.07
2018-01-04T08:06:20.469Z,30.44
2018-01-04T08:07:20.467Z,31.32
2018-01-04T08:08:20.481Z,31.58
2018-01-04T08:09:20.450Z,28.68
2018-01-04T08:10:20.439Z,22.22
2018-01-04T08:11:20.433Z,27.10
2018-01-04T08:12:20.426Z,46.21
2018-01-04T08:13:20.428Z,37.73
2018-01-04T08:14:20.420Z,33.26
2018-01-04T08:15:20.408Z,29.04
2018-01-04T08:16:20.413Z,38.18
2018-01-04T08:17:20.388Z,29.80
2018-01-04T08:18:20.387Z,30.92
2018-01-04T08:19:20.382Z,30.29
2018-01-04T08:20:20.374Z,31.16
2018-01-04T08:21:20.369Z,34.61
2018-01-04T08:22:20.360Z,32.56
2018-01-04T08:23:20.356Z,27.04
2018-01-04T08:24:20.347Z,26.08
2018-01-04T08:25:20.336Z,26.92
2018-01-04T08:26:20.331Z,24.40
2018-01-04T08:27:20.325Z,27.21
2018-01-04T08:28:20.315Z,34.09
2018-01-04T08:29:20.318Z,27.70
2018-01-04T08:30:20.310Z,30.18
2018-01-04T08:31:20.300Z,33.46
2018-01-04T08:32:20.292Z,29.23
2018-01-04T08:33:20.957Z,25.64
2018-01-04T08:34:20.288Z,26.10
2018-01-04T08:35:20.276Z,25.03
2018-01-04T08:36:20.271Z,32.49
2018-01-04T08:37:20.267Z,30.74
2018-01-04T08:38:20.248Z,26.05
2018-01-04T08:39:20.247Z,25.43
2018-01-04T08:40:20.241Z,24.02
2018-01-04T08:41:20.230Z,23.56
2018-01-04T08:42:22.956Z,33.68
2018-01-04T08:43:20.223Z,34.54
2018-01-04T08:44:20.217Z,25.76
2018-01-04T08:45:20.214Z,22.90
2018-01-04T08:46:20.205Z,25.24
2018-01-04T08:47:20.206Z,26.56
2018-01-04T08:48:20.195Z,24.40
2018-01-04T08:49:20.176Z,21.32
2018-01-04T08:50:20.186Z,25.36
2018-01-04T08:51:20.212Z,29.84
2018-01-04T08:52:20.166Z,29.19
2018-01-04T08:53:20.176Z,28.04
2018-01-04T08:54:20.151Z,27.21
2018-01-04T08:55:20.142Z,22.56
2018-01-04T08:56:20.135Z,26.06
2018-01-04T08:57:20.144Z,22.15
2018-01-04T08:58:20.123Z,20.67
2018-01-04T08:59:20.123Z,27.18
2018-01-04T09:00:20.117Z,26.51
2018-01-04T09:01:20.106Z,28.12
2018-01-04T09:02:20.102Z,27.50
2018-01-04T09:03:20.081Z,28.64
2018-01-04T09:04:20.082Z,23.78
2018-01-04T09:05:20.084Z,24.98
2018-01-04T09:06:20.072Z,27.38
2018-01-04T09:07:20.967Z,27.47
2018-01-04T09:08:20.059Z,21.89
2018-01-04T09:09:20.058Z,24.27
2018-01-04T09:10:20.048Z,27.02
2018-01-04T09:11:20.042Z,24.32
2018-01-04T09:12:20.039Z,21.93
2018-01-04T09:13:20.971Z,20.39
2018-01-04T09:14:20.029Z,25.26
2018-01-04T09:15:20.013Z,26.50
2018-01-04T09:16:20.013Z,25.04
2018-01-04T09:17:20.001Z,25.24
2018-01-04T09:18:19.993Z,21.80
2018-01-04T09:19:19.992Z,20.24
2018-01-04T09:20:20.971Z,25.13
2018-01-04T09:21:19.973Z,23.17
2018-01-04T09:22:19.968Z,21.36
2018-01-04T09:23:19.963Z,20.50
2018-01-04T09:24:19.957Z,20.59
2018-01-04T09:25:19.949Z,21.38
2018-01-04T09:26:19.945Z,17.70
2018-01-04T09:27:19.941Z,21.71
2018-01-04T09:28:19.927Z,16.82
2018-01-04T09:29:19.926Z,13.58
2018-01-04T09:30:19.924Z,18.45
2018-01-04T09:31:19.916Z,20.34
2018-01-04T09:32:19.910Z,17.87
2018-01-04T09:33:19.898Z,17.21
2018-01-04T09:34:19.886Z,20.12
2018-01-04T09:35:19.884Z,17.70
2018-01-04T09:36:19.881Z,16.98
2018-01-04T09:37:19.873Z,14.63
2018-01-04T09:38:19.860Z,13.11
2018-01-04T09:39:19.857Z,13.65
2018-01-04T09:40:19.851Z,13.05
2018-01-04T09:41:19.848Z,13.36
2018-01-04T09:42:19.837Z,11.11
2018-01-04T09:43:19.841Z,14.88
2018-01-04T09:44:19.828Z,12.81
2018-01-04T09:45:20.479Z,11.19
2018-01-04T09:46:19.814Z,10.83
2018-01-04T09:47:19.809Z,15.27
2018-01-04T09:48:19.797Z,10.26
2018-01-04T09:49:19.796Z,12.86
2018-01-04T09:50:19.785Z,14.38
2018-01-04T09:51:19.785Z,12.28
2018-01-04T09:52:19.772Z,17.53
2018-01-04T09:53:19.771Z,13.46
2018-01-04T09:54:19.758Z,14.25
2018-01-04T09:55:19.755Z,10.60
2018-01-04T09:56:19.744Z,9.89
2018-01-04T09:57:19.744Z,10.42
2018-01-04T09:58:19.738Z,14.18
2018-01-04T09:59:19.730Z,11.88
2018-01-04T10:00:19.725Z,9.32
2018-01-04T10:01:19.718Z,8.25
2018-01-04T10:02:19.707Z,10.03
2018-01-04T10:03:19.692Z,8.58
2018-01-04T10:04:19.695Z,11.22
2018-01-04T10:05:19.688Z,9.48
2018-01-04T10:06:19.695Z,6.98
2018-01-04T10:07:19.682Z,13.22
2018-01-04T10:08:19.691Z,10.26
2018-01-04T10:09:19.664Z,7.95
2018-01-04T10:10:19.650Z,6.17
2018-01-04T10:11:19.643Z,8.37
2018-01-04T10:12:19.652Z,9.86
2018-01-04T10:13:19.636Z,8.35
2018-01-04T10:14:19.630Z,8.74
2018-01-04T10:15:19.621Z,9.57
2018-01-04T10:16:19.620Z,6.54
2018-01-04T10:17:19.611Z,8.64
2018-01-04T10:18:19.609Z,8.07
2018-01-04T10:19:19.596Z,7.41
2018-01-04T10:20:19.589Z,6.90
2018-01-04T10:21:19.590Z,8.14
2018-01-04T10:22:20.505Z,7.67
2018-01-04T10:23:19.579Z,7.94
2018-01-04T10:24:19.568Z,8.98
2018-01-04T10:25:19.567Z,10.66
2018-01-04T10:26:19.559Z,9.95
2018-01-04T10:27:19.547Z,7.55
2018-01-04T10:28:19.541Z,6.24
2018-01-04T10:29:19.541Z,7.30
2018-01-04T10:30:19.527Z,5.90
2018-01-04T10:31:19.523Z,7.33
2018-01-04T10:32:19.530Z,6.72
2018-01-04T10:33:19.514Z,4.85
2018-01-04T10:34:19.496Z,6.72
2018-01-04T10:35:19.515Z,6.72
2018-01-04T10:36:19.493Z,5.35
2018-01-04T10:37:19.487Z,6.60
2018-01-04T10:38:19.482Z,6.31
2018-01-04T10:39:19.475Z,7.23
2018-01-04T10:40:19.467Z,8.60
2018-01-04T10:41:19.474Z,5.88
2018-01-04T10:42:19.456Z,4.12
2018-01-04T10:43:19.445Z,4.58
2018-01-04T10:44:19.440Z,6.46
2018-01-04T10:45:19.437Z,5.91
2018-01-04T10:46:19.430Z,4.18
2018-01-04T10:47:19.426Z,4.90
2018-01-04T10:48:19.415Z,5.31
2018-01-04T10:49:19.414Z,5.13
2018-01-04T10:50:19.403Z,6.96
2018-01-04T10:51:19.400Z,5.58
2018-01-04T10:52:19.391Z,8.20
2018-01-04T10:53:19.399Z,6.79
2018-01-04T10:54:19.389Z,5.11
2018-01-04T10:55:19.378Z,7.34
2018-01-04T10:56:19.377Z,5.79
2018-01-04T10:57:19.367Z,4.89
2018-01-04T10:58:19.351Z,5.22
2018-01-04T10:59:19.346Z,5.93
2018-01-04T11:00:19.347Z,3.94
2018-01-04T11:01:19.350Z,3.58
2018-01-04T11:02:19.335Z,3.90
2018-01-04T11:03:19.326Z,4.46
2018-01-04T11:04:19.319Z,4.86
2018-01-04T11:05:19.320Z,5.48
2018-01-04T11:06:19.306Z,6.79
2018-01-04T11:07:19.302Z,3.72
2018-01-04T11:08:19.297Z,2.92
2018-01-04T11:09:19.290Z,3.74
2018-01-04T11:10:19.291Z,4.48
2018-01-04T11:11:19.284Z,4.45
2018-01-04T11:12:19.266Z,4.96
2018-01-04T11:13:19.268Z,4.49
2018-01-04T11:14:19.260Z,4.28
2018-01-04T11:15:19.254Z,4.40
2018-01-04T11:16:19.248Z,5.82
2018-01-04T11:17:19.253Z,7.87
2018-01-04T11:18:19.239Z,7.62
2018-01-04T11:19:19.240Z,5.94
2018-01-04T11:20:19.228Z,5.69
2018-01-04T11:21:19.226Z,7.64
2018-01-04T11:22:19.209Z,7.80
2018-01-04T11:23:19.212Z,7.98
2018-01-04T11:24:19.204Z,8.37
2018-01-04T11:25:19.199Z,6.77
2018-01-04T11:26:19.189Z,6.78
2018-01-04T11:27:19.182Z,7.73
2018-01-04T11:28:19.206Z,9.08
2018-01-04T11:29:20.023Z,8.42
2018-01-04T11:30:19.165Z,6.28
2018-01-04T11:31:19.165Z,6.46
2018-01-04T11:32:19.159Z,8.86
2018-01-04T11:33:19.146Z,8.55
2018-01-04T11:34:19.144Z,7.52
2018-01-04T11:35:19.142Z,8.26
2018-01-04T11:36:19.151Z,7.18
2018-01-04T11:37:19.123Z,7.45
2018-01-04T11:38:19.116Z,9.21
2018-01-04T11:39:19.112Z,8.05
2018-01-04T11:40:19.106Z,5.31
2018-01-04T11:41:19.095Z,5.20
2018-01-04T11:42:19.091Z,8.20
2018-01-04T11:43:19.087Z,8.93
2018-01-04T11:44:19.076Z,8.07
2018-01-04T11:45:19.075Z,7.39
2018-01-04T11:46:19.074Z,6.32
2018-01-04T11:47:19.061Z,6.97
2018-01-04T11:48:19.055Z,8.32
2018-01-04T11:49:19.046Z,10.46
2018-01-04T11:50:19.044Z,8.62
2018-01-04T11:51:19.037Z,6.63
2018-01-04T11:52:19.036Z,7.25
2018-01-04T11:53:19.033Z,8.33
2018-01-04T11:54:19.021Z,7.28
2018-01-04T11:55:19.012Z,10.35
2018-01-04T11:56:19.009Z,8.56
2018-01-04T11:57:19.005Z,8.56
2018-01-04T11:58:19.048Z,8.50
2018-01-04T11:59:18.990Z,6.96
2018-01-04T12:00:18.981Z,8.32
2018-01-04T12:01:18.977Z,6.77
2018-01-04T12:02:18.973Z,8.37
2018-01-04T12:03:18.968Z,6.31
2018-01-04T12:04:18.955Z,8.04
2018-01-04T12:05:18.952Z,6.59
2018-01-04T12:06:18.947Z,5.57
2018-01-04T12:07:18.944Z,7.99
2018-01-04T12:08:18.933Z,6.48
2018-01-04T12:09:18.931Z,4.17
2018-01-04T12:10:18.925Z,4.85
2018-01-04T12:11:18.928Z,6.02
2018-01-04T12:12:18.914Z,6.60
2018-01-04T12:13:18.903Z,5.68
2018-01-04T12:14:18.895Z,4.44
2018-01-04T12:15:18.895Z,5.36
2018-01-04T12:16:18.885Z,4.60
2018-01-04T12:17:18.885Z,4.06
2018-01-04T12:18:18.872Z,5.80
2018-01-04T12:19:18.867Z,6.26
2018-01-04T12:20:18.859Z,6.53
2018-01-04T12:21:18.857Z,5.68
2018-01-04T12:22:18.849Z,5.70
2018-01-04T12:23:18.841Z,4.94
2018-01-04T12:24:18.839Z,6.33
2018-01-04T12:25:18.835Z,5.11
2018-01-04T12:26:18.826Z,5.47
2018-01-04T12:27:18.820Z,6.45
2018-01-04T12:28:18.815Z,6.99
2018-01-04T12:29:18.806Z,5.65
2018-01-04T12:30:18.789Z,4.88
2018-01-04T12:31:18.796Z,5.20
2018-01-04T12:32:18.785Z,5.50
2018-01-04T12:33:18.780Z,4.84
2018-01-04T12:34:18.770Z,4.87
2018-01-04T12:35:18.770Z,5.45
2018-01-04T12:36:18.763Z,3.82
2018-01-04T12:37:18.748Z,5.20
2018-01-04T12:38:18.750Z,4.60
2018-01-04T12:39:18.745Z,5.74
2018-01-04T12:40:18.739Z,5.42
2018-01-04T12:41:18.735Z,6.79
2018-01-04T12:42:18.724Z,5.12
2018-01-04T12:43:18.724Z,5.23
2018-01-04T12:44:18.712Z,4.91
2018-01-04T12:45:18.706Z,4.80
2018-01-04T12:46:18.694Z,5.54
2018-01-04T12:47:18.694Z,6.05
2018-01-04T12:48:18.687Z,6.01
2018-01-04T12:49:18.680Z,6.59
2018-01-04T12:50:18.678Z,7.58
2018-01-04T12:51:18.673Z,7.70
2018-01-04T12:52:18.653Z,12.24
2018-01-04T12:53:18.658Z,6.10
2018-01-04T12:54:18.652Z,6.59
2018-01-04T12:55:18.645Z,7.44
2018-01-04T12:56:18.636Z,7.88
2018-01-04T12:57:18.640Z,7.36
2018-01-04T12:58:18.627Z,7.06